Data for 03/12/2016

Time Sea-Level Adjusted Pressure Absolute Pressure Temperature Relative Humidity Dew Point   
(mb) (inHg) (mb) (inHg) (C) (F) (%) (C) (F)
00:05 1010 29.83 839 24.78 7.3 45.2 51 -2.1 28.3
00:10 1010 29.83 839 24.78 7.4 45.4 51 -2.1 28.2
00:15 1010 29.83 839 24.78 7.5 45.5 50 -2.2 28.1
00:20 1010 29.83 839 24.78 7.6 45.6 50 -2.3 27.9
00:25 1010 29.83 839 24.78 7.5 45.5 51 -2 28.4
00:30 1010 29.83 839 24.78 7.3 45.1 52 -2 28.4
00:35 1010 29.83 839 24.78 7.1 44.7 52 -2.2 28.1
00:40 1010 29.83 839 24.78 7.1 44.7 51 -2.4 27.8
00:45 1009 29.8 839 24.78 7 44.5 52 -2.3 27.8
00:50 1009 29.8 839 24.78 7 44.5 51 -2.5 27.5
00:55 1009 29.8 838 24.75 7 44.5 50 -2.7 27.1
01:00 1009 29.8 838 24.75 7 44.6 50 -2.6 27.3
01:05 1009 29.8 838 24.75 6.9 44.4 51 -2.5 27.4
01:10 1009 29.8 838 24.75 6.7 44.1 51 -2.6 27.3
01:15 1009 29.8 838 24.75 6.7 44 51 -2.7 27.2
01:20 1009 29.8 838 24.75 6.7 44 51 -2.8 27
01:25 1009 29.8 838 24.75 6.6 43.9 51 -2.8 26.9
01:30 1009 29.8 838 24.75 6.6 43.8 51 -2.8 26.9
01:35 1009 29.8 838 24.75 6.5 43.8 51 -2.8 26.9
01:40 1009 29.8 838 24.75 6.6 43.9 50 -3 26.6
01:45 1009 29.8 838 24.75 6.7 44 51 -2.8 26.9
01:50 1009 29.8 838 24.75 6.7 44 51 -2.8 27
01:55 1009 29.8 838 24.75 6.6 43.9 51 -2.8 26.9
02:00 1008 29.77 838 24.75 6.6 43.8 51 -2.8 27
02:05 1008 29.77 838 24.75 6.5 43.7 51 -3 26.6
02:10 1008 29.77 838 24.75 6.5 43.7 51 -2.9 26.8
02:15 1008 29.77 838 24.75 6.4 43.6 51 -2.9 26.7
02:20 1008 29.77 838 24.75 6.4 43.5 52 -2.8 26.9
02:25 1008 29.77 838 24.75 6.4 43.6 52 -2.7 27.2
02:30 1008 29.77 838 24.75 6.6 43.8 53 -2.3 27.8
02:35 1008 29.77 837 24.72 6.6 43.8 54 -2.1 28.2
02:40 1008 29.77 837 24.72 6.5 43.7 54 -2.1 28.3
02:45 1008 29.77 837 24.72 6.4 43.4 55 -2.1 28.2
02:50 1008 29.77 837 24.72 6.4 43.4 55 -2 28.3
02:55 1008 29.77 837 24.72 6.3 43.4 55 -2.1 28.2
03:00 1008 29.77 837 24.72 6.3 43.3 54 -2.3 27.9
03:05 1008 29.77 837 24.72 6.2 43.2 54 -2.3 27.8
03:10 1008 29.77 837 24.72 6.2 43.1 54 -2.5 27.5
03:15 1008 29.77 837 24.72 6.1 43 53 -2.7 27.2
03:20 1008 29.77 837 24.72 6.2 43.1 53 -2.8 27
03:25 1008 29.77 837 24.72 6.1 43 53 -2.8 26.9
03:30 1008 29.77 837 24.72 6 42.8 53 -2.9 26.9
03:35 1008 29.77 837 24.72 6 42.8 53 -2.8 26.9
03:40 1008 29.77 837 24.72 5.9 42.7 54 -2.7 27.1
03:45 1008 29.77 837 24.72 5.7 42.3 54 -2.9 26.7
03:50 1008 29.77 837 24.72 5.6 42.1 54 -3.1 26.5
03:55 1008 29.77 837 24.72 5.6 42.1 53 -3.1 26.4
04:00 1008 29.77 837 24.72 5.6 42 53 -3.2 26.2
04:05 1008 29.77 837 24.72 5.7 42.3 53 -3.2 26.2
04:10 1008 29.77 837 24.72 5.7 42.3 53 -3.2 26.2
04:15 1008 29.77 837 24.72 5.7 42.3 53 -3.2 26.2
04:20 1008 29.77 837 24.72 5.5 41.9 54 -3.2 26.3
04:25 1008 29.77 837 24.72 5.4 41.7 54 -3.2 26.3
04:30 1008 29.77 837 24.72 5.5 41.9 54 -3 26.7
04:35 1008 29.77 837 24.72 5.3 41.6 55 -3.1 26.5
04:40 1008 29.77 837 24.72 5.3 41.5 54 -3.2 26.2
04:45 1008 29.77 837 24.72 5.2 41.4 53 -3.4 25.8
04:50 1008 29.77 837 24.72 5.5 42 52 -3.6 25.5
04:55 1008 29.77 837 24.72 5.5 41.9 53 -3.3 26.1
05:00 1008 29.77 837 24.72 5.3 41.5 55 -3.1 26.5
05:05 1008 29.77 837 24.72 5 41 55 -3.3 26.1
05:10 1008 29.77 837 24.72 5 41.1 56 -3.1 26.5
05:15 1008 29.77 837 24.72 4.8 40.6 58 -2.9 26.9
05:20 1008 29.77 837 24.72 4.7 40.5 58 -2.9 26.8
05:25 1008 29.77 837 24.72 4.7 40.5 58 -2.8 27
05:30 1008 29.77 837 24.72 4.6 40.2 59 -2.8 26.9
05:35 1008 29.77 837 24.72 4.6 40.2 58 -3 26.6
05:40 1008 29.77 837 24.72 4.7 40.5 57 -3 26.5
05:45 1008 29.77 837 24.72 4.8 40.7 57 -2.9 26.7
05:50 1008 29.77 837 24.72 4.9 40.8 59 -2.6 27.4
05:55 1008 29.77 837 24.72 4.6 40.3 59 -2.7 27.1
06:00 1008 29.77 837 24.72 4.7 40.5 57 -3 26.6
06:05 1008 29.77 837 24.72 5 41 56 -2.9 26.7
06:10 1008 29.77 837 24.72 5.2 41.3 56 -2.9 26.7
06:15 1008 29.77 837 24.72 5.4 41.8 55 -3 26.6
06:20 1008 29.77 837 24.72 5.5 41.9 54 -3 26.5
06:25 1008 29.77 837 24.72 5.6 42 54 -2.9 26.8
06:30 1008 29.77 837 24.72 5.4 41.7 56 -2.8 27
06:35 1008 29.77 837 24.72 5.2 41.4 55 -3 26.7
06:40 1008 29.77 837 24.72 5.3 41.5 55 -3.1 26.4
06:45 1008 29.77 837 24.72 5.4 41.8 53 -3.3 26.1
06:50 1008 29.77 837 24.72 5.5 41.9 51 -3.8 25.2
06:55 1008 29.77 837 24.72 5.7 42.3 52 -3.5 25.7
07:00 1008 29.77 837 24.72 5.6 42.2 52 -3.5 25.7
07:05 1008 29.77 837 24.72 5.7 42.3 50 -3.8 25.2
07:10 1007 29.74 837 24.72 6.2 43.1 47 -4.2 24.4
07:15 1007 29.74 837 24.72 6.4 43.5 50 -3.2 26.2
07:20 1007 29.74 837 24.72 6 42.8 50 -3.6 25.5
07:25 1007 29.74 837 24.72 5.9 42.6 51 -3.5 25.6
07:30 1007 29.74 837 24.72 5.7 42.2 51 -3.7 25.4
07:35 1007 29.74 836 24.69 5.9 42.7 49 -4 24.8
07:40 1007 29.74 837 24.72 6.1 42.9 49 -3.8 25.2
07:45 1007 29.74 837 24.72 5.8 42.5 51 -3.4 25.8
07:50 1007 29.74 837 24.72 5.9 42.5 50 -3.8 25.2
07:55 1007 29.74 837 24.72 5.9 42.7 49 -3.9 25
08:00 1007 29.74 836 24.69 6.1 43 47 -4.3 24.3
08:05 1007 29.74 837 24.72 6.3 43.3 47 -4.1 24.6
08:10 1007 29.74 837 24.72 6.2 43.2 48 -4 24.9
08:15 1007 29.74 837 24.72 6.1 43 47 -4.2 24.4
08:20 1007 29.74 837 24.72 6.1 43.1 47 -4.4 24
08:25 1007 29.74 837 24.72 6.4 43.6 45 -4.6 23.7
08:30 1007 29.74 837 24.72 6.8 44.2 44 -4.7 23.5
08:35 1007 29.74 837 24.72 7.3 45.1 42 -4.9 23.1
08:40 1007 29.74 837 24.72 7.5 45.5 42 -4.6 23.7
08:45 1007 29.74 837 24.72 7.8 46.1 40 -4.8 23.3
08:50 1007 29.74 837 24.72 8.1 46.5 39 -5 22.9
08:55 1007 29.74 837 24.72 8.5 47.2 38 -4.9 23.2
09:00 1007 29.74 837 24.72 8.5 47.2 40 -4.5 24
09:05 1008 29.77 837 24.72 8.5 47.3 39 -4.8 23.3
09:10 1008 29.77 837 24.72 8.7 47.7 39 -4.3 24.2
09:15 1008 29.77 837 24.72 8.9 48.1 39 -4.4 24
09:20 1008 29.77 837 24.72 8.9 48 39 -4.3 24.2
09:25 1008 29.77 837 24.72 9.3 48.7 37 -4.8 23.4
09:30 1007 29.74 837 24.72 9.7 49.5 36 -4.8 23.4
09:35 1007 29.74 837 24.72 10.5 50.8 33 -5 22.9
09:40 1007 29.74 837 24.72 11.9 53.5 26 -6.7 19.9
09:45 1007 29.74 837 24.72 13 55.4 27 -5.5 22
09:50 1007 29.74 837 24.72 13.4 56 26 -5.8 21.6
09:55 1007 29.74 837 24.72 13.3 55.9 26 -5.9 21.4
10:00 1007 29.74 837 24.72 13.3 55.9 25 -6.2 20.8
10:05 1007 29.74 837 24.72 13.4 56.1 26 -5.9 21.3
10:10 1007 29.74 837 24.72 13.5 56.2 26 -5.9 21.5
10:15 1007 29.74 837 24.72 13.2 55.7 26 -6 21.1
10:20 1007 29.74 837 24.72 13 55.4 26 -6.2 20.9
10:25 1007 29.74 837 24.72 12.9 55.2 25 -6.5 20.3
10:30 1007 29.74 837 24.72 12.9 55.2 26 -6.1 21
10:35 1007 29.74 836 24.69 13 55.4 26 -6.2 20.8
10:40 1007 29.74 837 24.72 13.1 55.5 26 -6 21.1
10:45 1007 29.74 837 24.72 12.8 55.1 27 -5.9 21.4
10:50 1007 29.74 836 24.69 12.8 55 27 -5.6 22
10:55 1007 29.74 836 24.69 12.8 55 26 -6.2 20.8
11:00 1007 29.74 836 24.69 12.9 55.1 26 -5.9 21.3
11:05 1007 29.74 836 24.69 12.8 55.1 27 -5.9 21.4
11:10 1007 29.74 836 24.69 12.9 55.2 26 -6.1 21.1
11:15 1007 29.74 836 24.69 13 55.3 26 -6.2 20.8
11:20 1007 29.74 836 24.69 13.1 55.7 26 -5.8 21.5
11:25 1007 29.74 836 24.69 13.1 55.6 26 -5.7 21.7
11:30 1007 29.74 836 24.69 12.9 55.3 26 -5.9 21.3
11:35 1007 29.74 836 24.69 12.9 55.3 27 -5.5 22.1
11:40 1007 29.74 837 24.72 12.8 55.1 27 -5.6 21.8
11:45 1007 29.74 837 24.72 12.9 55.1 27 -5.5 22.1
11:50 1007 29.74 837 24.72 12.8 55.1 28 -5.4 22.3
11:55 1007 29.74 837 24.72 12.9 55.2 27 -5.5 22.1
12:00 1007 29.74 837 24.72 13.1 55.5 28 -5.1 22.8
12:05 1007 29.74 837 24.72 13.2 55.8 27 -5.3 22.5
12:10 1007 29.74 837 24.72 13.2 55.8 27 -5.3 22.5
12:15 1007 29.74 836 24.69 13.3 55.9 27 -5.1 22.9
12:20 1007 29.74 836 24.69 13.2 55.8 28 -5 23
12:25 1007 29.74 836 24.69 13.2 55.8 27 -5.1 22.8
12:30 1007 29.74 837 24.72 13.4 56.2 28 -4.9 23.2
12:35 1007 29.74 836 24.69 13.5 56.2 27 -5.1 22.8
12:40 1007 29.74 836 24.69 13.5 56.2 27 -5.2 22.7
12:45 1007 29.74 836 24.69 13.4 56.2 27 -5.3 22.4
12:50 1007 29.74 836 24.69 13.5 56.2 27 -5.2 22.7
12:55 1007 29.74 836 24.69 13.5 56.3 27 -5.2 22.7
13:00 1007 29.74 836 24.69 13.4 56.2 27 -5.3 22.4
13:05 1007 29.74 836 24.69 13.4 56.2 27 -5.2 22.7
13:10 1007 29.74 836 24.69 13.6 56.4 27 -5.1 22.8
13:15 1007 29.74 836 24.69 13.6 56.5 27 -5 23
13:20 1007 29.74 836 24.69 13.4 56.1 27 -5 23.1
13:25 1007 29.74 836 24.69 13.3 55.9 28 -4.8 23.4
13:30 1007 29.74 836 24.69 13.3 56 28 -5 23.1
13:35 1007 29.74 836 24.69 13.4 56.1 28 -4.6 23.7
13:40 1007 29.74 836 24.69 13.3 55.9 27 -5.2 22.6
13:45 1007 29.74 836 24.69 13.3 55.9 27 -5.3 22.5
13:50 1007 29.74 836 24.69 13.2 55.8 28 -4.9 23.2
13:55 1007 29.74 836 24.69 13.3 56 27 -5.1 22.7
14:00 1007 29.74 836 24.69 13.3 55.9 27 -5.2 22.6
14:05 1007 29.74 836 24.69 13.1 55.7 28 -5.1 22.9
14:10 1007 29.74 836 24.69 13.1 55.5 28 -5.2 22.7
14:15 1007 29.74 836 24.69 13.1 55.6 27 -5.5 22.2
14:20 1007 29.74 836 24.69 13.1 55.6 27 -5.4 22.4
14:25 1007 29.74 836 24.69 13.1 55.7 28 -5.1 22.8
14:30 1007 29.74 836 24.69 13.2 55.7 27 -5.2 22.6
14:35 1007 29.74 836 24.69 13.3 56 26 -5.7 21.7
14:40 1007 29.74 836 24.69 13.4 56 26 -5.5 22.1
14:45 1007 29.74 836 24.69 13.4 56.2 27 -5.2 22.7
14:50 1007 29.74 836 24.69 13.3 55.9 27 -5.4 22.3
14:55 1007 29.74 836 24.69 13.3 55.9 26 -5.5 22.1
15:00 1007 29.74 836 24.69 13.4 56.1 26 -5.5 22.1
15:05 1007 29.74 836 24.69 13.5 56.2 26 -5.7 21.8
15:10 1007 29.74 836 24.69 13.6 56.4 26 -5.7 21.8
15:15 1007 29.74 836 24.69 13.7 56.6 25 -5.9 21.3
15:20 1007 29.74 836 24.69 13.7 56.6 25 -6.1 21
15:25 1007 29.74 836 24.69 13.7 56.6 24 -6.4 20.5
15:30 1007 29.74 836 24.69 13.6 56.6 25 -6 21.2
15:35 1007 29.74 836 24.69 13.7 56.7 24 -6.6 20.1
15:40 1007 29.74 836 24.69 14.4 57.8 24 -6 21.2
15:45 1006 29.71 836 24.69 14.3 57.7 23 -6.3 20.7
15:50 1006 29.71 836 24.69 14.3 57.8 22 -7.3 18.9
15:55 1006 29.71 836 24.69 14.4 57.9 23 -6.4 20.5
16:00 1007 29.74 836 24.69 14.4 57.9 23 -6.6 20.1
16:05 1007 29.74 836 24.69 13.8 56.9 24 -6.4 20.5
16:10 1007 29.74 836 24.69 13.7 56.6 25 -6.1 21
16:15 1007 29.74 836 24.69 13.6 56.5 24 -6.7 19.9
16:20 1007 29.74 836 24.69 13.7 56.6 24 -6.6 20.1
16:25 1007 29.74 836 24.69 13.8 56.9 23 -7.1 19.1
16:30 1007 29.74 836 24.69 14 57.2 24 -6.1 21
16:35 1007 29.74 836 24.69 13.7 56.6 26 -5.3 22.5
16:40 1007 29.74 836 24.69 13.2 55.7 27 -5.5 22.1
16:45 1007 29.74 836 24.69 12.8 55.1 26 -5.9 21.3
16:50 1007 29.74 836 24.69 12.8 55.1 31 -4 24.8
16:55 1007 29.74 836 24.69 12.2 54 34 -3.3 26
17:00 1007 29.74 836 24.69 11.8 53.3 32 -4.3 24.2
17:05 1007 29.74 836 24.69 12 53.6 33 -3.9 25
17:10 1007 29.74 836 24.69 11.9 53.5 33 -3.8 25.2
17:15 1007 29.74 836 24.69 12 53.6 31 -4.7 23.6
17:20 1007 29.74 837 24.72 12 53.7 31 -4.6 23.8
17:25 1008 29.77 837 24.72 12 53.5 31 -4.7 23.5
17:30 1008 29.77 837 24.72 11.8 53.3 31 -4.7 23.6
17:35 1008 29.77 837 24.72 11.8 53.2 31 -4.7 23.5
17:40 1008 29.77 837 24.72 11.8 53.2 31 -4.6 23.8
17:45 1008 29.77 837 24.72 11.6 52.9 45 0.3 32.5
17:50 1009 29.8 838 24.75 9.9 49.8 53 0.9 33.5
17:55 1009 29.8 838 24.75 8.8 47.9 57 0.8 33.5
18:00 1009 29.8 838 24.75 8.1 46.5 62 1.2 34.1
18:05 1009 29.8 838 24.75 7.5 45.4 63 0.9 33.6
18:10 1009 29.8 839 24.78 6.7 44.1 70 1.6 34.8
18:15 1010 29.83 839 24.78 5.8 42.4 73 1.4 34.5
18:20 1010 29.83 839 24.78 5.1 41.2 76 1.2 34.2
18:25 1010 29.83 839 24.78 4.7 40.5 77 1.1 34
18:30 1010 29.83 839 24.78 4.4 40 79 1.2 34.1
18:35 1010 29.83 839 24.78 4.4 40 78 1 33.8
18:40 1010 29.83 839 24.78 4.6 40.4 77 0.9 33.7
18:45 1010 29.83 839 24.78 4.9 40.8 74 0.7 33.3
18:50 1010 29.83 839 24.78 5.3 41.5 71 0.4 32.7
18:55 1010 29.83 839 24.78 5.6 42.1 70 0.5 32.9
19:00 1009 29.8 839 24.78 5.7 42.2 71 0.7 33.3
19:05 1009 29.8 839 24.78 5.7 42.2 71 0.8 33.4
19:10 1009 29.8 838 24.75 5.5 41.9 72 0.8 33.5
19:15 1009 29.8 838 24.75 5.3 41.5 73 0.8 33.4
19:20 1009 29.8 839 24.78 5.1 41.3 72 0.6 33.1
19:25 1009 29.8 838 24.75 5 41.1 72 0.5 32.9
19:30 1009 29.8 839 24.78 5 41 72 0.3 32.6
19:35 1009 29.8 839 24.78 5 41.1 71 0.2 32.4
19:40 1009 29.8 838 24.75 5.3 41.5 69 0.1 32.1
19:45 1009 29.8 838 24.75 5.4 41.7 70 0.3 32.5
19:50 1009 29.8 839 24.78 5.3 41.5 71 0.4 32.8
19:55 1009 29.8 839 24.78 5.2 41.3 68 -0.3 31.5
20:00 1009 29.8 839 24.78 5.5 41.9 69 0.3 32.5
20:05 1009 29.8 839 24.78 5.1 41.1 72 0.5 32.9
20:10 1010 29.83 839 24.78 4.8 40.6 72 0.2 32.3
20:15 1009 29.8 839 24.78 5.1 41.1 68 -0.3 31.4
20:20 1010 29.83 839 24.78 5.3 41.6 67 -0.4 31.3
20:25 1010 29.83 839 24.78 5.9 42.7 63 -0.6 31
20:30 1010 29.83 839 24.78 6.3 43.3 57 -1.6 29.1
20:35 1010 29.83 839 24.78 6.7 44 58 -1 30.2
20:40 1010 29.83 839 24.78 6.6 43.8 57 -1.3 29.7
20:45 1010 29.83 839 24.78 6.6 43.8 56 -1.6 29.1
20:50 1010 29.83 839 24.78 6.5 43.8 57 -1.3 29.7
20:55 1010 29.83 839 24.78 6.2 43.2 58 -1.4 29.5
21:00 1010 29.83 839 24.78 6.2 43.2 63 -0.3 31.4
21:05 1010 29.83 839 24.78 5.6 42.1 61 -1.3 29.6
21:10 1010 29.83 839 24.78 5.9 42.7 58 -1.7 28.9
21:15 1010 29.83 839 24.78 6.1 43 55 -2.2 28.1
21:20 1010 29.83 839 24.78 6.4 43.6 54 -2.1 28.3
21:25 1010 29.83 839 24.78 6 42.8 59 -1.3 29.6
21:30 1010 29.83 839 24.78 5.1 41.3 61 -1.7 29
21:35 1010 29.83 839 24.78 4.8 40.6 63 -1.7 29
21:40 1010 29.83 839 24.78 4.4 39.9 64 -1.7 28.9
21:45 1010 29.83 839 24.78 4.5 40.1 62 -2.2 28
21:50 1010 29.83 839 24.78 4.8 40.7 62 -1.9 28.5
21:55 1010 29.83 839 24.78 4.3 39.8 62 -2.4 27.8
22:00 1010 29.83 839 24.78 4.4 39.8 58 -3.2 26.3
22:05 1010 29.83 839 24.78 4.7 40.5 57 -3.2 26.3
22:10 1009 29.8 839 24.78 4.6 40.3 56 -3.5 25.8
22:15 1009 29.8 839 24.78 4.7 40.4 54 -3.8 25.2
22:20 1009 29.8 839 24.78 4.8 40.7 53 -3.9 25
22:25 1009 29.8 838 24.75 5.1 41.1 51 -4.2 24.5
22:30 1009 29.8 838 24.75 5.7 42.3 48 -4.3 24.2
22:35 1009 29.8 838 24.75 6 42.9 49 -4 24.9
22:40 1009 29.8 838 24.75 5.8 42.5 50 -3.9 25
22:45 1009 29.8 838 24.75 5.9 42.6 47 -4.5 23.9
22:50 1009 29.8 838 24.75 6.6 43.8 43 -5.2 22.6
22:55 1009 29.8 838 24.75 6.6 43.9 44 -4.8 23.4
23:00 1009 29.8 838 24.75 6.4 43.6 45 -4.7 23.6
23:05 1009 29.8 838 24.75 6.3 43.3 45 -4.8 23.3
23:10 1009 29.8 838 24.75 6.3 43.4 44 -5 22.9
23:15 1009 29.8 838 24.75 6.6 43.9 44 -4.8 23.4
23:20 1009 29.8 839 24.78 6.4 43.6 44 -4.9 23.1
23:25 1009 29.8 839 24.78 6.2 43.2 46 -4.6 23.6
23:30 1009 29.8 839 24.78 5.8 42.4 46 -4.8 23.3
23:35 1010 29.83 839 24.78 5.7 42.2 46 -4.9 23.2
23:40 1010 29.83 839 24.78 5.6 42.1 47 -4.7 23.5
23:45 1010 29.83 839 24.78 5.1 41.2 51 -4.1 24.6
23:50 1010 29.83 839 24.78 4.7 40.4 50 -4.8 23.4
23:55 1010 29.83 839 24.78 5 41 50 -4.6 23.7
24:00 1010 29.83 839 24.78 5 41.1 48 -5.1 22.9